Time;durP1;ratioP1;P1;durP2;ratioP2;P2;SDS_P1;SDS_P2;PMS_P1;PMS_P2;Temp;Humidity;BMP_temperature;BMP_pressure;BME280_temperature;BME280_humidity;BME280_pressure;Samples;Min_cycle;Max_cycle;Signal;HPM_P1;HPM_P2
2021/12/12 00:02:49;;;;;;;3.63;2.50;;;;;;;18.60;52.83;101271.88;5090825;28;20523;-58
2021/12/12 00:05:13;;;;;;;3.63;2.20;;;;;;;18.64;52.31;101272.84;5091168;28;20424;-58
2021/12/12 00:07:38;;;;;;;3.67;2.77;;;;;;;18.64;52.72;101272.00;5106447;28;20427;-58
2021/12/12 00:10:12;;;;;;;3.90;2.90;;;;;;;18.63;52.63;101268.31;5111683;28;20438;-58
2021/12/12 00:12:43;;;;;;;6.60;2.80;;;;;;;18.61;52.40;101267.81;5111380;28;20269;-58
2021/12/12 00:15:09;;;;;;;3.77;2.40;;;;;;;18.58;52.68;101274.28;5101893;28;20415;-58
2021/12/12 00:17:34;;;;;;;4.73;2.50;;;;;;;18.62;52.27;101272.34;5110101;28;20415;-57
2021/12/12 00:20:00;;;;;;;4.63;2.60;;;;;;;18.61;52.34;101273.53;5099647;28;20550;-58
2021/12/12 00:22:27;;;;;;;5.43;2.67;;;;;;;18.60;52.90;101271.88;5103333;28;20307;-57
2021/12/12 00:24:52;;;;;;;3.63;2.47;;;;;;;18.65;52.28;101274.50;5110539;28;20526;-57
2021/12/12 00:27:19;;;;;;;4.50;3.10;;;;;;;18.61;52.55;101282.13;5102541;28;20554;-57
2021/12/12 00:29:44;;;;;;;4.40;3.10;;;;;;;18.61;53.03;101282.13;5097337;28;20655;-57
2021/12/12 00:32:12;;;;;;;4.33;2.73;;;;;;;18.60;52.55;101286.19;5090747;28;20503;-58
2021/12/12 00:34:42;;;;;;;3.03;2.00;;;;;;;18.63;52.31;101294.06;5098356;28;20191;-58
2021/12/12 00:37:08;;;;;;;4.40;2.80;;;;;;;18.62;52.33;101289.50;5112806;27;20451;-57
2021/12/12 00:39:35;;;;;;;3.70;2.67;;;;;;;18.66;52.28;101292.50;5109655;27;20435;-58
2021/12/12 00:42:11;;;;;;;5.23;2.90;;;;;;;18.61;52.45;101293.56;5125301;27;20169;-57
2021/12/12 00:44:38;;;;;;;4.43;2.60;;;;;;;18.65;52.30;101291.66;5087629;28;20436;-58
2021/12/12 00:47:04;;;;;;;3.90;2.60;;;;;;;18.62;52.21;101286.66;5071258;28;20448;-58
2021/12/12 00:49:30;;;;;;;5.70;2.57;;;;;;;18.65;52.29;101297.38;5098126;28;20492;-58
2021/12/12 00:51:55;;;;;;;4.87;2.57;;;;;;;18.59;52.24;101298.81;5095340;28;20515;-58
2021/12/12 00:54:20;;;;;;;5.73;2.80;;;;;;;18.59;52.68;101293.09;5090237;28;20705;-58
2021/12/12 00:56:46;;;;;;;3.70;2.30;;;;;;;18.59;52.41;101297.97;5102468;28;20205;-58
2021/12/12 00:59:12;;;;;;;3.77;2.50;;;;;;;18.60;52.55;101288.19;5110313;28;20162;-58
2021/12/12 01:01:45;;;;;;;3.93;2.43;;;;;;;18.57;52.32;101288.94;5100608;28;20592;-58
2021/12/12 01:04:16;;;;;;;4.53;2.90;;;;;;;18.56;52.53;101298.72;5093946;28;20189;-58
2021/12/12 01:06:42;;;;;;;4.17;2.50;;;;;;;18.57;52.53;101301.19;5091462;28;20792;-58
2021/12/12 01:09:09;;;;;;;4.13;2.43;;;;;;;18.59;52.36;101295.97;5100375;28;20415;-58
2021/12/12 01:11:41;;;;;;;3.97;2.73;;;;;;;18.59;52.65;101298.81;5109494;28;20628;-57
2021/12/12 01:14:10;;;;;;;4.27;2.90;;;;;;;18.56;52.38;101290.13;5087034;28;20787;-57
2021/12/12 01:16:59;;;;;;;4.20;2.47;;;;;;;18.57;52.44;101286.06;5092503;28;20472;-57
2021/12/12 01:19:32;;;;;;;4.10;2.53;;;;;;;18.57;52.30;101291.78;5089674;28;20454;-58
2021/12/12 01:22:01;;;;;;;4.30;2.80;;;;;;;18.54;52.73;101296.19;5090411;28;20884;-58
2021/12/12 01:24:30;;;;;;;4.87;2.60;;;;;;;18.53;52.41;101294.53;5092310;28;21154;-58
2021/12/12 01:26:56;;;;;;;3.30;2.27;;;;;;;18.53;52.37;101299.41;5102323;28;20416;-58
2021/12/12 01:29:21;;;;;;;4.07;2.27;;;;;;;18.60;52.33;101300.50;5109947;28;20411;-58
2021/12/12 01:31:48;;;;;;;5.00;3.00;;;;;;;18.54;52.62;101303.94;5111304;28;20572;-58
2021/12/12 01:34:22;;;;;;;5.27;2.97;;;;;;;18.49;52.45;101296.44;5103947;28;20228;-58
2021/12/12 01:37:11;;;;;;;3.83;2.63;;;;;;;18.56;52.62;101295.84;5096468;28;20451;-57
2021/12/12 01:39:44;;;;;;;4.90;2.30;;;;;;;18.54;52.32;101290.47;5093393;28;20439;-58
2021/12/12 01:42:17;;;;;;;4.63;2.47;;;;;;;18.54;52.41;101289.63;5105116;28;20429;-58
2021/12/12 01:44:51;;;;;;;4.50;2.93;;;;;;;18.54;52.57;101290.47;5095342;28;20414;-58
2021/12/12 01:47:36;;;;;;;6.10;3.17;;;;;;;18.52;52.33;101284.28;5092451;28;20949;-58
2021/12/12 01:50:06;;;;;;;3.60;2.30;;;;;;;18.55;52.40;101285.56;5096790;28;20419;-58
2021/12/12 01:52:32;;;;;;;4.47;2.67;;;;;;;18.52;52.37;101294.88;5114502;28;20898;-57
2021/12/12 01:55:24;;;;;;;4.00;2.90;;;;;;;18.55;52.32;101289.28;5112178;28;20449;-58
2021/12/12 01:57:51;;;;;;;3.57;2.47;;;;;;;18.54;52.32;101286.78;5110406;28;20672;-57
2021/12/12 02:00:26;;;;;;;3.50;2.33;;;;;;;18.51;52.55;101285.47;5113578;28;20826;-58
2021/12/12 02:02:51;;;;;;;3.60;2.60;;;;;;;18.52;52.37;101281.41;5097020;28;20407;-57
2021/12/12 02:05:18;;;;;;;5.00;2.83;;;;;;;18.47;52.53;101281.66;5109983;28;20449;-57
2021/12/12 02:07:45;;;;;;;3.77;2.53;;;;;;;18.49;52.62;101287.00;5097648;28;20178;-57
2021/12/12 02:10:14;;;;;;;4.33;2.57;;;;;;;18.55;52.17;101297.00;5105500;28;20483;-58
2021/12/12 02:12:39;;;;;;;4.73;2.83;;;;;;;18.55;52.52;101297.88;5113627;28;20423;-58
2021/12/12 02:15:07;;;;;;;3.90;2.50;;;;;;;18.51;52.71;101301.81;5092318;28;20432;-57
2021/12/12 02:17:38;;;;;;;3.50;2.57;;;;;;;18.51;52.19;101301.81;5099415;28;20210;-58
2021/12/12 02:20:40;;;;;;;3.70;2.40;;;;;;;18.47;52.44;101301.66;5094923;28;20435;-58
2021/12/12 02:36:34;;;;;;;3.17;2.20;;;;;;;18.45;52.56;101304.06;5078893;28;20993;-57
2021/12/12 02:39:00;;;;;;;4.57;2.07;;;;;;;18.46;52.52;101316.34;5119275;27;20415;-57
2021/12/12 02:41:26;;;;;;;4.73;2.40;;;;;;;18.50;52.35;101309.53;5110822;28;20188;-58
2021/12/12 02:43:54;;;;;;;5.27;2.90;;;;;;;18.44;52.26;101307.25;5106671;27;20437;-58
2021/12/12 02:46:22;;;;;;;4.97;2.93;;;;;;;18.43;52.24;101305.59;5099370;28;20186;-58
2021/12/12 02:48:48;;;;;;;4.33;2.33;;;;;;;18.47;52.13;101313.09;5092836;28;21118;-58
2021/12/12 02:51:15;;;;;;;3.20;2.40;;;;;;;18.48;52.37;101313.94;5093046;28;20420;-58
2021/12/12 02:53:53;;;;;;;4.30;2.83;;;;;;;18.44;52.45;101319.53;5095095;28;20646;-57
2021/12/12 02:56:30;;;;;;;3.83;2.50;;;;;;;18.46;52.56;101317.16;5105841;28;20957;-58
2021/12/12 02:58:56;;;;;;;3.93;2.20;;;;;;;18.43;52.48;101312.16;5095067;28;20503;-58
2021/12/12 03:01:28;;;;;;;4.43;2.83;;;;;;;18.43;52.42;101317.88;5100744;28;20537;-58
2021/12/12 03:03:54;;;;;;;3.50;2.33;;;;;;;18.44;52.31;101313.81;5092327;28;20193;-58
2021/12/12 03:06:22;;;;;;;4.43;2.90;;;;;;;18.44;52.32;101315.84;5092875;28;20405;-58
2021/12/12 03:08:51;;;;;;;3.73;2.67;;;;;;;18.48;52.18;101305.38;5094167;28;20181;-58
2021/12/12 03:11:16;;;;;;;4.23;2.70;;;;;;;18.49;52.14;101312.75;5104495;28;20419;-58
2021/12/12 03:13:42;;;;;;;3.60;2.80;;;;;;;18.45;52.21;101311.78;5096042;28;20428;-58
2021/12/12 03:16:07;;;;;;;3.53;2.57;;;;;;;18.45;52.26;101314.66;5097011;28;20669;-57
2021/12/12 03:18:40;;;;;;;4.17;2.80;;;;;;;18.44;52.60;101310.97;5096847;28;20753;-58
2021/12/12 03:21:14;;;;;;;4.03;2.33;;;;;;;18.46;52.53;101307.75;5091291;28;20204;-58
2021/12/12 03:23:40;;;;;;;4.60;2.63;;;;;;;18.49;52.48;101313.59;5092859;28;20408;-57
2021/12/12 03:26:07;;;;;;;4.00;2.60;;;;;;;18.45;52.16;101306.91;5095152;28;20428;-58
2021/12/12 03:28:34;;;;;;;4.20;2.60;;;;;;;18.47;51.98;101312.28;5109290;28;20671;-57
2021/12/12 03:31:01;;;;;;;3.30;2.23;;;;;;;18.43;52.25;101311.31;5106146;28;20432;-58
2021/12/12 03:33:27;;;;;;;3.40;2.40;;;;;;;18.41;52.51;101308.81;5097898;28;20420;-58
2021/12/12 03:35:53;;;;;;;3.83;2.60;;;;;;;18.43;52.15;101311.31;5091179;28;20436;-57
2021/12/12 03:38:19;;;;;;;4.20;2.93;;;;;;;18.43;52.23;101311.31;5116516;27;20877;-58
2021/12/12 03:40:45;;;;;;;3.80;2.40;;;;;;;18.43;51.90;101302.75;5098004;28;20199;-58
2021/12/12 03:43:11;;;;;;;4.13;2.60;;;;;;;18.44;52.10;101313.81;5094061;28;20428;-58
2021/12/12 03:45:36;;;;;;;3.97;2.60;;;;;;;18.47;52.06;101312.28;5108197;28;20912;-57
2021/12/12 03:48:37;;;;;;;4.03;2.87;;;;;;;18.44;52.38;101305.25;5111229;28;20170;-58
2021/12/12 03:51:03;;;;;;;4.30;2.60;;;;;;;18.45;52.11;101309.78;5094425;28;20199;-58
2021/12/12 03:53:29;;;;;;;3.97;2.50;;;;;;;18.46;52.21;101305.72;5090871;28;20424;-58
2021/12/12 03:55:55;;;;;;;3.93;2.60;;;;;;;18.44;52.64;101307.25;5103186;28;20462;-57
2021/12/12 03:58:21;;;;;;;4.17;2.60;;;;;;;18.44;52.05;101299.53;5111822;28;20162;-58
2021/12/12 04:01:08;;;;;;;3.80;2.57;;;;;;;18.46;52.00;101296.31;5111359;28;20879;-57
2021/12/12 04:03:33;;;;;;;3.00;2.03;;;;;;;18.44;51.98;101296.66;5110617;28;20542;-57
2021/12/12 04:06:01;;;;;;;6.70;3.30;;;;;;;18.42;52.15;101299.03;5109297;28;20451;-57
2021/12/12 04:08:28;;;;;;;3.90;2.40;;;;;;;18.47;52.13;101293.09;5110397;28;20177;-57
2021/12/12 04:10:53;;;;;;;3.07;2.50;;;;;;;18.40;52.36;101295.72;5101025;28;20827;-57
2021/12/12 04:13:19;;;;;;;3.50;2.30;;;;;;;18.42;52.09;101307.63;5092752;28;20452;-57
2021/12/12 04:15:49;;;;;;;4.20;2.73;;;;;;;18.43;52.50;101317.03;5092988;28;20240;-57
2021/12/12 04:18:14;;;;;;;4.53;2.70;;;;;;;18.49;51.90;101315.59;5096362;28;20163;-57
2021/12/12 04:20:40;;;;;;;3.70;2.47;;;;;;;18.47;51.91;101315.97;5055778;28;20787;-58
2021/12/12 04:23:21;;;;;;;2.80;1.90;;;;;;;18.42;52.50;101318.22;5091522;28;20174;-57
2021/12/12 04:25:47;;;;;;;4.93;2.80;;;;;;;18.47;51.99;101315.97;5093319;28;20173;-58
2021/12/12 04:28:12;;;;;;;5.07;2.60;;;;;;;18.45;52.39;101321.22;5096498;28;20922;-58
2021/12/12 04:30:37;;;;;;;3.67;2.30;;;;;;;18.45;52.14;101323.22;5090815;28;20717;-58
2021/12/12 04:33:03;;;;;;;4.37;3.00;;;;;;;18.43;52.30;101323.59;5091506;28;20179;-58
2021/12/12 04:35:31;;;;;;;3.80;2.30;;;;;;;18.46;52.13;101325.72;5096679;28;20703;-58
2021/12/12 04:37:57;;;;;;;4.17;2.70;;;;;;;18.45;52.13;101326.94;5114382;27;20177;-58
2021/12/12 04:40:24;;;;;;;3.37;2.50;;;;;;;18.44;52.02;101330.13;5115805;27;20431;-58
2021/12/12 04:42:51;;;;;;;3.90;2.30;;;;;;;18.42;52.27;101324.78;5110844;28;20416;-58
2021/12/12 04:45:38;;;;;;;3.90;2.50;;;;;;;18.42;52.15;101326.81;5113765;27;20410;-58
2021/12/12 04:51:13;;;;;;;4.17;3.00;;;;;;;18.42;52.32;101321.91;5110042;28;20816;-58
2021/12/12 04:54:02;;;;;;;3.23;2.20;;;;;;;18.42;51.79;101323.94;5098335;28;20427;-57
2021/12/12 04:56:49;;;;;;;3.13;2.00;;;;;;;18.46;52.24;101328.59;5079052;28;20499;-58
2021/12/12 04:59:22;;;;;;;4.20;2.80;;;;;;;18.42;52.28;101321.91;5060263;28;20489;-58
2021/12/12 05:02:02;;;;;;;4.40;2.70;;;;;;;18.40;52.17;101318.59;5089689;28;20981;-58
2021/12/12 05:04:54;;;;;;;4.10;2.60;;;;;;;18.42;52.13;101319.03;5090906;28;20448;-57
2021/12/12 05:07:41;;;;;;;5.17;2.70;;;;;;;18.41;52.29;101319.44;5093129;28;20427;-58
2021/12/12 05:10:22;;;;;;;3.40;2.30;;;;;;;18.44;52.09;101315.84;5093595;28;20436;-58
2021/12/12 05:12:55;;;;;;;3.87;2.30;;;;;;;18.38;52.18;101329.56;5091249;28;20865;-58
2021/12/12 05:15:24;;;;;;;4.30;2.70;;;;;;;18.39;52.39;101328.34;5086259;28;20444;-58
2021/12/12 05:18:05;;;;;;;3.50;2.27;;;;;;;18.43;51.96;101332.19;5088935;28;20501;-58
2021/12/12 05:20:36;;;;;;;3.83;2.47;;;;;;;18.42;52.10;101338.25;5087428;28;20427;-58
2021/12/12 05:23:06;;;;;;;2.73;1.87;;;;;;;18.43;52.03;101329.31;5096631;28;20494;-57
2021/12/12 05:25:52;;;;;;;5.30;2.90;;;;;;;18.42;52.17;101336.19;5115115;28;20427;-58
2021/12/12 05:28:18;;;;;;;3.77;2.67;;;;;;;18.42;52.18;101336.19;5110943;28;20462;-57
2021/12/12 05:30:44;;;;;;;4.17;2.57;;;;;;;18.41;52.09;101337.41;5078629;28;20423;-57
2021/12/12 05:33:10;;;;;;;4.20;2.70;;;;;;;18.46;51.75;101336.34;5092961;28;20427;-58
2021/12/12 05:35:37;;;;;;;3.57;2.40;;;;;;;18.46;51.85;101344.94;5113391;28;20545;-58
2021/12/12 05:38:03;;;;;;;4.00;2.70;;;;;;;18.40;52.17;101338.59;5085862;28;20435;-58
2021/12/12 05:40:29;;;;;;;3.93;2.70;;;;;;;18.40;51.83;101338.59;5098526;28;20432;-58
2021/12/12 05:42:59;;;;;;;3.30;2.03;;;;;;;18.40;52.44;101335.75;5077785;28;20426;-58
2021/12/12 05:45:24;;;;;;;4.77;2.93;;;;;;;18.39;51.79;101342.66;5065327;28;20523;-57
2021/12/12 05:47:49;;;;;;;3.87;2.30;;;;;;;18.40;52.19;101344.31;5058900;28;20523;-57
2021/12/12 05:50:15;;;;;;;3.53;2.17;;;;;;;18.39;52.05;101344.66;5108441;28;20768;-58
2021/12/12 05:52:42;;;;;;;3.57;2.07;;;;;;;18.42;52.14;101344.78;5113553;28;20914;-57
2021/12/12 05:55:08;;;;;;;4.30;2.43;;;;;;;18.39;52.28;101353.25;5106954;28;20182;-57
2021/12/12 05:57:33;;;;;;;3.50;2.60;;;;;;;18.41;51.86;101343.13;5110260;28;20537;-58
2021/12/12 05:59:59;;;;;;;3.43;2.40;;;;;;;18.50;51.65;101341.00;5113471;28;20478;-57
2021/12/12 06:02:25;;;;;;;4.70;2.67;;;;;;;18.47;51.60;101350.28;5083093;28;20180;-58
2021/12/12 06:04:54;;;;;;;4.03;2.53;;;;;;;18.45;51.64;101357.53;5075519;28;20181;-57
2021/12/12 06:07:20;;;;;;;3.33;2.13;;;;;;;18.44;51.95;101351.00;5075973;28;20432;-58
2021/12/12 06:09:47;;;;;;;3.30;2.27;;;;;;;18.46;51.95;101344.94;5076178;28;20879;-59
2021/12/12 06:12:12;;;;;;;3.40;2.20;;;;;;;18.41;52.30;101348.03;5104258;28;20190;-58
2021/12/12 06:14:38;;;;;;;5.53;2.47;;;;;;;18.42;52.04;101344.78;5058100;28;20519;-57
2021/12/12 06:17:07;;;;;;;5.70;2.73;;;;;;;18.43;52.17;101352.19;5099697;28;20659;-57
2021/12/12 06:19:32;;;;;;;3.27;2.13;;;;;;;18.42;51.81;101355.41;5114005;28;20166;-57
2021/12/12 06:21:58;;;;;;;2.87;1.97;;;;;;;18.41;51.79;101353.75;5090182;28;20443;-57
2021/12/12 06:24:25;;;;;;;4.67;2.53;;;;;;;18.44;51.65;101359.56;5108027;28;20227;-57
2021/12/12 06:26:51;;;;;;;3.93;2.13;;;;;;;18.42;51.92;101359.06;5108688;27;20467;-58
2021/12/12 06:29:16;;;;;;;2.83;2.10;;;;;;;18.46;51.58;101362.91;5091827;28;20438;-57
2021/12/12 06:31:43;;;;;;;3.73;2.33;;;;;;;18.45;52.31;101354.69;5096694;28;20183;-57
2021/12/12 06:34:09;;;;;;;3.20;2.00;;;;;;;18.41;52.29;101368.84;5134878;27;20584;-58
2021/12/12 06:36:35;;;;;;;4.07;2.00;;;;;;;18.44;51.67;101371.00;5133578;27;20457;-58
2021/12/12 06:39:00;;;;;;;4.03;2.23;;;;;;;18.44;51.96;101373.88;5116023;27;20176;-57
2021/12/12 06:41:26;;;;;;;2.93;1.73;;;;;;;18.50;51.74;101383.88;5104524;27;20184;-58
2021/12/12 06:43:52;;;;;;;4.47;2.90;;;;;;;18.47;51.84;101387.44;5093308;28;20220;-58
2021/12/12 06:46:18;;;;;;;5.10;2.37;;;;;;;18.50;51.54;101383.88;5097048;27;20188;-58
2021/12/12 06:48:43;;;;;;;3.80;2.50;;;;;;;18.50;51.60;101389.59;5113271;27;20498;-58
2021/12/12 06:51:09;;;;;;;2.70;2.10;;;;;;;18.53;51.38;101386.06;5093540;28;20181;-58
2021/12/12 06:53:37;;;;;;;3.23;2.13;;;;;;;18.47;52.19;101392.34;5099702;28;20275;-57
2021/12/12 06:56:02;;;;;;;3.33;2.20;;;;;;;18.48;51.79;101397.72;5074635;28;20193;-58
2021/12/12 06:58:29;;;;;;;3.37;2.23;;;;;;;18.43;51.64;101402.81;5095459;28;20911;-58
2021/12/12 07:00:58;;;;;;;3.63;2.30;;;;;;;18.50;51.65;101406.75;5078024;28;20586;-57
2021/12/12 07:03:23;;;;;;;3.97;2.57;;;;;;;18.47;51.70;101410.31;5070415;28;20468;-57
2021/12/12 07:05:49;;;;;;;3.67;2.10;;;;;;;18.48;51.78;101417.72;5070491;28;20449;-58
2021/12/12 07:08:15;;;;;;;3.20;2.23;;;;;;;18.50;51.70;101423.91;5071554;28;20262;-58
2021/12/12 07:10:41;;;;;;;3.20;2.10;;;;;;;18.48;51.91;101422.59;5061940;28;20211;-58
2021/12/12 07:13:07;;;;;;;4.03;2.57;;;;;;;18.48;51.49;101426.31;5038693;28;20429;-58
2021/12/12 07:15:54;;;;;;;3.10;2.03;;;;;;;18.45;51.79;101418.44;5052500;28;20203;-58
2021/12/12 07:18:24;;;;;;;3.63;2.00;;;;;;;18.50;51.63;101425.94;5057743;28;20995;-58
2021/12/12 07:20:51;;;;;;;3.40;2.17;;;;;;;18.45;51.91;101421.28;5051278;28;20841;-58
2021/12/12 07:23:16;;;;;;;3.60;2.10;;;;;;;18.48;51.81;101423.44;5062306;28;20468;-58
2021/12/12 07:25:42;;;;;;;4.13;2.40;;;;;;;18.47;51.80;101430.34;5055310;28;20466;-58
2021/12/12 07:28:08;;;;;;;3.53;2.33;;;;;;;18.46;51.83;101433.56;5053919;28;20189;-58
2021/12/12 07:30:34;;;;;;;3.70;2.60;;;;;;;18.42;52.27;101432.59;5066942;28;20796;-58
2021/12/12 07:33:00;;;;;;;3.83;2.50;;;;;;;18.45;51.75;101429.88;5071435;28;20270;-58
2021/12/12 07:35:25;;;;;;;4.57;2.60;;;;;;;18.43;52.04;101426.53;5065518;28;20179;-58
2021/12/12 07:37:52;;;;;;;4.20;2.50;;;;;;;18.45;52.00;101434.75;5073360;28;20193;-58
2021/12/12 07:40:18;;;;;;;3.50;2.13;;;;;;;18.43;51.96;101426.53;5090233;28;20267;-58
2021/12/12 07:42:45;;;;;;;3.43;2.13;;;;;;;18.41;51.98;101423.19;5066258;28;20438;-58
2021/12/12 07:45:11;;;;;;;2.90;1.97;;;;;;;18.48;51.97;101434.88;5055113;28;20426;-59
2021/12/12 07:47:37;;;;;;;3.70;2.47;;;;;;;18.42;52.10;101432.59;5053505;28;20449;-58
2021/12/12 07:50:04;;;;;;;3.30;1.93;;;;;;;18.50;51.41;101429.63;5042042;28;20429;-58
2021/12/12 07:52:29;;;;;;;4.00;2.40;;;;;;;18.46;51.85;101436.44;5050632;28;20225;-59
2021/12/12 07:54:56;;;;;;;4.70;2.13;;;;;;;18.46;51.89;101431.53;5055102;28;20433;-59
2021/12/12 07:57:23;;;;;;;3.33;1.93;;;;;;;18.43;51.84;101431.41;5051724;28;20200;-58
2021/12/12 07:59:48;;;;;;;2.90;1.93;;;;;;;18.46;51.69;101425.00;5058469;28;20459;-58
2021/12/12 08:02:14;;;;;;;3.50;2.20;;;;;;;18.46;51.72;101436.44;5102360;28;20429;-58
2021/12/12 08:04:40;;;;;;;4.10;2.43;;;;;;;18.46;51.60;101431.53;5090738;28;20166;-58
2021/12/12 08:07:13;;;;;;;3.30;2.20;;;;;;;18.45;51.73;101435.59;5073815;28;20444;-59
2021/12/12 08:09:42;;;;;;;2.93;1.97;;;;;;;18.43;51.85;101432.25;5094206;28;20971;-58
2021/12/12 08:12:11;;;;;;;3.27;2.03;;;;;;;18.47;51.55;101429.53;5110832;28;20802;-58
2021/12/12 08:14:36;;;;;;;3.50;2.13;;;;;;;18.45;51.74;101434.75;5092752;28;20515;-59
2021/12/12 08:17:02;;;;;;;3.57;2.07;;;;;;;18.47;51.59;101435.25;5111375;28;20499;-59
2021/12/12 08:19:29;;;;;;;4.73;2.33;;;;;;;18.46;52.35;101436.44;5101052;28;20238;-58
2021/12/12 08:21:55;;;;;;;2.63;1.73;;;;;;;18.44;52.03;101433.91;5092012;28;20182;-59
2021/12/12 08:24:21;;;;;;;4.17;2.50;;;;;;;18.48;51.85;101428.31;5093325;28;20438;-58
2021/12/12 08:26:46;;;;;;;3.63;2.13;;;;;;;18.46;51.73;101430.72;5095505;28;20421;-59
2021/12/12 08:29:12;;;;;;;3.40;2.10;;;;;;;18.49;51.60;101430.00;5072605;28;20166;-59
2021/12/12 08:31:38;;;;;;;3.60;2.00;;;;;;;18.48;51.72;101423.44;5091289;28;20658;-59
2021/12/12 08:34:04;;;;;;;4.13;2.47;;;;;;;18.50;51.65;101425.94;5076751;28;20177;-59
2021/12/12 08:36:30;;;;;;;3.13;1.97;;;;;;;18.50;51.32;101421.06;5092774;28;20205;-59
2021/12/12 08:38:55;;;;;;;3.90;2.20;;;;;;;18.55;51.57;101429.41;5100621;28;20945;-58
2021/12/12 08:41:21;;;;;;;3.37;2.20;;;;;;;18.57;51.51;101426.22;5096310;28;20166;-59
2021/12/12 08:43:46;;;;;;;3.70;2.40;;;;;;;18.51;51.61;101422.72;5087898;28;20165;-58
2021/12/12 08:46:13;;;;;;;3.27;2.20;;;;;;;18.56;51.45;101413.09;5071928;28;20657;-58
2021/12/12 08:48:41;;;;;;;4.17;2.37;;;;;;;18.54;51.66;101415.47;5075223;28;20331;-59
2021/12/12 08:51:13;;;;;;;2.90;2.00;;;;;;;18.54;51.40;101419.16;5111117;28;20419;-59
2021/12/12 08:53:39;;;;;;;2.70;1.87;;;;;;;18.52;51.76;101415.81;5107030;28;20435;-59
2021/12/12 08:56:05;;;;;;;3.57;2.27;;;;;;;18.54;51.68;101422.03;5101210;28;20448;-59
2021/12/12 08:58:31;;;;;;;3.50;2.10;;;;;;;18.50;51.58;101415.34;5090394;28;20223;-58
2021/12/12 09:01:05;;;;;;;3.40;2.10;;;;;;;18.51;51.58;101421.91;5093232;28;20476;-59
2021/12/12 09:03:36;;;;;;;5.33;2.37;;;;;;;18.52;51.67;101423.56;5106182;28;20422;-59
2021/12/12 09:06:02;;;;;;;2.93;1.90;;;;;;;18.49;51.78;101427.97;5110743;28;20505;-59
2021/12/12 09:08:51;;;;;;;5.33;1.87;;;;;;;18.57;51.34;101423.34;5080098;28;20427;-59
2021/12/12 09:11:16;;;;;;;3.87;2.00;;;;;;;18.51;51.83;101439.06;5071191;28;20465;-58
2021/12/12 09:14:13;;;;;;;3.53;1.93;;;;;;;18.50;51.81;101440.22;5093075;28;20919;-61
2021/12/12 09:16:40;;;;;;;2.80;1.77;;;;;;;18.52;51.42;101440.72;5091594;28;20212;-59
2021/12/12 09:19:19;;;;;;;2.90;1.87;;;;;;;18.52;51.66;101438.69;5110942;28;20411;-58
2021/12/12 09:21:57;;;;;;;3.00;1.93;;;;;;;18.49;51.84;101436.56;5091551;28;20910;-59
2021/12/12 09:24:32;;;;;;;2.33;1.70;;;;;;;18.50;51.61;101452.53;5103577;28;20442;-58
2021/12/12 09:27:03;;;;;;;3.23;2.10;;;;;;;18.48;51.68;101452.03;5106621;28;20414;-58
2021/12/12 09:29:33;;;;;;;2.77;1.70;;;;;;;18.48;51.75;101451.19;5079635;28;20442;-59
2021/12/12 09:32:02;;;;;;;4.60;2.30;;;;;;;18.46;51.72;101448.69;5074596;28;20503;-58
2021/12/12 09:34:49;;;;;;;4.07;2.10;;;;;;;18.54;51.92;101455.50;5090644;28;20447;-59
2021/12/12 09:37:21;;;;;;;3.07;2.10;;;;;;;18.51;51.65;101454.19;5097948;28;20451;-58
2021/12/12 09:39:50;;;;;;;3.10;1.77;;;;;;;18.50;51.41;101448.81;5092819;28;20423;-59
2021/12/12 09:42:38;;;;;;;3.57;1.97;;;;;;;18.52;51.48;101446.44;5091867;28;20415;-59
2021/12/12 09:45:30;;;;;;;5.00;1.90;;;;;;;18.47;51.50;101450.34;5086749;28;20421;-59
2021/12/12 09:51:42;;;;;;;3.70;2.00;;;;;;;18.53;51.27;101454.69;5088259;28;20412;-58
2021/12/12 09:54:32;;;;;;;3.60;1.90;;;;;;;18.57;51.61;101444.19;5102412;28;20430;-59
2021/12/12 09:57:06;;;;;;;2.97;1.73;;;;;;;18.52;51.46;101453.00;5109990;28;21055;-59
2021/12/12 09:59:50;;;;;;;2.37;1.70;;;;;;;18.47;51.61;101441.78;5097060;28;20538;-59
2021/12/12 10:02:49;;;;;;;2.80;1.73;;;;;;;18.55;51.60;101442.88;5072386;28;20900;-59
2021/12/12 10:05:17;;;;;;;3.10;1.93;;;;;;;18.52;51.65;101435.81;5093715;28;20412;-59
2021/12/12 10:07:58;;;;;;;3.83;2.17;;;;;;;18.51;51.56;101439.06;5100003;28;20436;-59
2021/12/12 10:10:58;;;;;;;3.03;2.07;;;;;;;18.53;51.43;101433.81;5075632;28;20443;-58
2021/12/12 10:13:43;;;;;;;4.10;2.37;;;;;;;18.56;51.40;101430.25;5062678;28;21281;-58
2021/12/12 10:16:39;;;;;;;4.10;2.23;;;;;;;18.61;51.49;101433.72;5092993;28;20991;-59
2021/12/12 10:19:17;;;;;;;3.93;2.07;;;;;;;18.54;51.79;101444.06;5099483;28;20462;-59
2021/12/12 10:22:01;;;;;;;3.53;2.27;;;;;;;18.57;51.53;101438.47;5096097;28;20412;-59
2021/12/12 10:24:48;;;;;;;3.00;1.80;;;;;;;18.57;51.48;101447.03;5102584;28;20485;-59
2021/12/12 10:27:54;;;;;;;3.00;1.90;;;;;;;18.59;51.59;101438.97;5113223;28;20907;-58
2021/12/12 10:30:28;;;;;;;4.00;2.20;;;;;;;18.52;51.56;101438.69;5060764;28;20464;-58
2021/12/12 10:33:15;;;;;;;2.73;1.73;;;;;;;18.52;51.53;101443.59;5093070;28;20412;-59
2021/12/12 10:35:43;;;;;;;3.80;1.70;;;;;;;18.57;51.41;101434.78;5092751;28;20413;-59
2021/12/12 10:38:15;;;;;;;3.13;1.73;;;;;;;18.57;51.63;101429.06;5109477;27;20453;-58
2021/12/12 10:40:55;;;;;;;3.17;1.90;;;;;;;18.53;51.77;101428.94;5085472;28;20841;-59
2021/12/12 10:43:30;;;;;;;2.43;1.63;;;;;;;18.53;51.57;101426.09;5092423;28;20469;-59
2021/12/12 10:46:03;;;;;;;2.50;1.40;;;;;;;18.52;51.66;101426.44;5059804;28;20486;-58
2021/12/12 10:48:37;;;;;;;2.77;1.77;;;;;;;18.56;51.53;101421.69;5104659;27;20437;-59
2021/12/12 10:51:10;;;;;;;3.80;1.90;;;;;;;18.50;51.75;101428.78;5078871;28;20439;-59
2021/12/12 10:53:49;;;;;;;3.50;1.80;;;;;;;18.55;51.56;101417.97;5090479;28;20427;-58
2021/12/12 10:56:31;;;;;;;3.10;2.10;;;;;;;18.51;51.55;101422.72;5099840;28;21018;-59
2021/12/12 10:58:59;;;;;;;3.60;2.30;;;;;;;18.51;51.74;101419.88;5092006;28;20431;-58
2021/12/12 11:01:33;;;;;;;2.40;1.70;;;;;;;18.60;51.15;101414.03;5094616;28;20480;-59
2021/12/12 11:04:31;;;;;;;2.90;1.83;;;;;;;18.58;52.12;101411.56;5078974;28;21267;-59
2021/12/12 11:06:59;;;;;;;2.30;1.40;;;;;;;18.56;51.15;101410.25;5047207;28;20445;-59
2021/12/12 11:09:34;;;;;;;2.70;1.60;;;;;;;18.51;51.68;101405.56;5082246;28;20952;-59
2021/12/12 11:12:20;;;;;;;3.47;1.87;;;;;;;18.50;51.85;101405.91;5109291;28;20442;-59
2021/12/12 11:14:47;;;;;;;3.50;1.97;;;;;;;18.59;51.30;101398.94;5111097;28;20720;-59
2021/12/12 11:17:17;;;;;;;3.13;1.67;;;;;;;18.57;51.56;101397.59;5094276;28;20447;-60
2021/12/12 11:19:54;;;;;;;4.73;1.60;;;;;;;18.52;51.78;101400.69;5084493;28;20895;-59
2021/12/12 11:22:29;;;;;;;2.70;1.63;;;;;;;18.53;51.97;101408.09;5073982;28;20907;-59
2021/12/12 11:24:59;;;;;;;2.80;1.90;;;;;;;18.53;51.65;101408.94;5074200;28;20416;-59
2021/12/12 11:27:33;;;;;;;2.90;1.70;;;;;;;18.52;51.37;101407.22;5092827;28;20405;-59
2021/12/12 11:30:04;;;;;;;3.83;1.90;;;;;;;18.50;51.52;101403.91;5106599;28;20424;-58
2021/12/12 11:32:34;;;;;;;2.87;1.63;;;;;;;18.51;51.49;101407.63;5094352;28;20492;-59
2021/12/12 11:35:02;;;;;;;3.47;1.80;;;;;;;18.52;51.73;101394.97;5081473;28;20477;-59
2021/12/12 11:37:51;;;;;;;2.50;1.50;;;;;;;18.52;51.97;101395.78;5098435;27;20473;-58
2021/12/12 11:40:39;;;;;;;3.80;1.90;;;;;;;18.54;51.67;101392.59;5108946;28;20420;-59
2021/12/12 11:43:25;;;;;;;2.70;1.70;;;;;;;18.54;51.65;101399.16;5108436;28;20443;-58
2021/12/12 11:45:54;;;;;;;2.63;1.50;;;;;;;18.59;51.35;101398.94;5112191;28;20408;-59
2021/12/12 11:48:30;;;;;;;2.90;1.90;;;;;;;18.53;51.57;101394.63;5089445;28;20428;-58
2021/12/12 11:51:05;;;;;;;2.83;1.80;;;;;;;18.53;51.77;101397.50;5086784;28;20825;-59
2021/12/12 11:53:46;;;;;;;3.10;1.93;;;;;;;18.51;52.04;101397.00;5090746;28;20420;-59
2021/12/12 11:56:16;;;;;;;3.50;1.90;;;;;;;18.51;51.74;101397.00;5089399;28;20455;-59
2021/12/12 11:58:50;;;;;;;2.40;1.80;;;;;;;18.57;51.53;101389.03;5090999;28;20776;-59
2021/12/12 12:01:39;;;;;;;2.00;1.33;;;;;;;18.50;51.63;101386.75;5097861;28;20536;-58
2021/12/12 12:04:26;;;;;;;3.60;1.93;;;;;;;18.56;51.60;101390.22;5090309;28;20423;-59